sensor_id;sensor_type;location;lat;lon;timestamp;P1;durP1;ratioP1;P2;durP2;ratioP2
1603;SDS011;795;49.296;11.348;2022-10-16T00:01:39;2.70;;;2.50;;
1603;SDS011;795;49.296;11.348;2022-10-16T00:04:06;13.57;;;3.90;;
1603;SDS011;795;49.296;11.348;2022-10-16T00:06:35;3.70;;;3.07;;
1603;SDS011;795;49.296;11.348;2022-10-16T00:09:02;3.67;;;3.37;;
1603;SDS011;795;49.296;11.348;2022-10-16T00:11:30;4.90;;;3.87;;
1603;SDS011;795;49.296;11.348;2022-10-16T00:14:06;3.00;;;2.83;;
1603;SDS011;795;49.296;11.348;2022-10-16T00:16:39;4.83;;;3.07;;
1603;SDS011;795;49.296;11.348;2022-10-16T00:19:06;3.80;;;3.50;;
1603;SDS011;795;49.296;11.348;2022-10-16T00:21:34;5.47;;;5.03;;
1603;SDS011;795;49.296;11.348;2022-10-16T00:24:03;7.00;;;3.20;;
1603;SDS011;795;49.296;11.348;2022-10-16T00:26:35;5.43;;;2.60;;
1603;SDS011;795;49.296;11.348;2022-10-16T00:29:04;3.20;;;3.00;;
1603;SDS011;795;49.296;11.348;2022-10-16T00:31:32;3.77;;;2.80;;
1603;SDS011;795;49.296;11.348;2022-10-16T00:34:00;7.17;;;3.37;;
1603;SDS011;795;49.296;11.348;2022-10-16T00:36:27;3.60;;;3.40;;
1603;SDS011;795;49.296;11.348;2022-10-16T00:38:55;3.27;;;2.97;;
1603;SDS011;795;49.296;11.348;2022-10-16T00:41:26;4.70;;;3.27;;
1603;SDS011;795;49.296;11.348;2022-10-16T00:43:58;3.00;;;2.80;;
1603;SDS011;795;49.296;11.348;2022-10-16T00:46:40;4.53;;;4.13;;
1603;SDS011;795;49.296;11.348;2022-10-16T00:49:09;3.17;;;2.97;;
1603;SDS011;795;49.296;11.348;2022-10-16T00:51:43;4.13;;;3.83;;
1603;SDS011;795;49.296;11.348;2022-10-16T00:54:21;3.90;;;3.60;;
1603;SDS011;795;49.296;11.348;2022-10-16T00:56:53;8.03;;;3.47;;
1603;SDS011;795;49.296;11.348;2022-10-16T00:59:27;2.90;;;2.70;;
1603;SDS011;795;49.296;11.348;2022-10-16T01:02:04;4.70;;;2.70;;
1603;SDS011;795;49.296;11.348;2022-10-16T01:05:09;4.37;;;2.90;;
1603;SDS011;795;49.296;11.348;2022-10-16T01:10:40;3.27;;;2.97;;
1603;SDS011;795;49.296;11.348;2022-10-16T01:13:38;3.33;;;3.03;;
1603;SDS011;795;49.296;11.348;2022-10-16T01:16:20;3.30;;;3.03;;
1603;SDS011;795;49.296;11.348;2022-10-16T01:18:57;2.97;;;2.77;;
1603;SDS011;795;49.296;11.348;2022-10-16T01:21:40;10.27;;;3.63;;
1603;SDS011;795;49.296;11.348;2022-10-16T01:24:23;5.73;;;2.97;;
1603;SDS011;795;49.296;11.348;2022-10-16T01:27:25;3.23;;;3.03;;
1603;SDS011;795;49.296;11.348;2022-10-16T01:30:10;6.47;;;3.80;;
1603;SDS011;795;49.296;11.348;2022-10-16T01:35:38;3.17;;;2.97;;
1603;SDS011;795;49.296;11.348;2022-10-16T01:41:04;4.17;;;3.40;;
1603;SDS011;795;49.296;11.348;2022-10-16T01:46:38;3.30;;;3.10;;
1603;SDS011;795;49.296;11.348;2022-10-16T01:49:09;3.80;;;3.50;;
1603;SDS011;795;49.296;11.348;2022-10-16T01:51:39;5.57;;;3.33;;
1603;SDS011;795;49.296;11.348;2022-10-16T01:54:13;4.57;;;2.80;;
1603;SDS011;795;49.296;11.348;2022-10-16T01:56:46;3.33;;;3.00;;
1603;SDS011;795;49.296;11.348;2022-10-16T01:59:18;4.00;;;3.00;;
1603;SDS011;795;49.296;11.348;2022-10-16T02:01:58;6.77;;;3.03;;
1603;SDS011;795;49.296;11.348;2022-10-16T02:04:33;7.87;;;3.07;;
1603;SDS011;795;49.296;11.348;2022-10-16T02:07:19;2.90;;;2.50;;
1603;SDS011;795;49.296;11.348;2022-10-16T02:09:46;3.33;;;2.87;;
1603;SDS011;795;49.296;11.348;2022-10-16T02:12:14;3.43;;;3.13;;
1603;SDS011;795;49.296;11.348;2022-10-16T02:14:53;7.47;;;3.03;;
1603;SDS011;795;49.296;11.348;2022-10-16T02:17:21;3.53;;;3.20;;
1603;SDS011;795;49.296;11.348;2022-10-16T02:19:50;2.73;;;2.53;;
1603;SDS011;795;49.296;11.348;2022-10-16T02:22:24;2.93;;;2.50;;
1603;SDS011;795;49.296;11.348;2022-10-16T02:25:10;3.37;;;2.70;;
1603;SDS011;795;49.296;11.348;2022-10-16T02:30:20;3.27;;;2.97;;
1603;SDS011;795;49.296;11.348;2022-10-16T02:33:09;2.93;;;2.73;;
1603;SDS011;795;49.296;11.348;2022-10-16T02:35:40;2.80;;;2.60;;
1603;SDS011;795;49.296;11.348;2022-10-16T02:38:12;3.13;;;2.80;;
1603;SDS011;795;49.296;11.348;2022-10-16T02:40:42;3.57;;;3.00;;
1603;SDS011;795;49.296;11.348;2022-10-16T02:43:10;3.30;;;3.00;;
1603;SDS011;795;49.296;11.348;2022-10-16T02:45:37;2.93;;;2.67;;
1603;SDS011;795;49.296;11.348;2022-10-16T02:48:05;3.00;;;2.80;;
1603;SDS011;795;49.296;11.348;2022-10-16T02:50:32;2.57;;;2.37;;
1603;SDS011;795;49.296;11.348;2022-10-16T02:53:00;2.53;;;2.33;;
1603;SDS011;795;49.296;11.348;2022-10-16T02:55:27;3.00;;;2.80;;
1603;SDS011;795;49.296;11.348;2022-10-16T02:57:54;3.10;;;2.80;;
1603;SDS011;795;49.296;11.348;2022-10-16T03:00:21;3.53;;;2.50;;
1603;SDS011;795;49.296;11.348;2022-10-16T03:02:48;3.20;;;2.90;;
1603;SDS011;795;49.296;11.348;2022-10-16T03:05:15;2.83;;;2.70;;
1603;SDS011;795;49.296;11.348;2022-10-16T03:07:43;2.87;;;2.67;;
1603;SDS011;795;49.296;11.348;2022-10-16T03:10:10;5.33;;;3.20;;
1603;SDS011;795;49.296;11.348;2022-10-16T03:12:37;2.77;;;2.57;;
1603;SDS011;795;49.296;11.348;2022-10-16T03:15:04;2.90;;;2.73;;
1603;SDS011;795;49.296;11.348;2022-10-16T03:17:32;3.10;;;2.60;;
1603;SDS011;795;49.296;11.348;2022-10-16T03:19:59;3.27;;;2.80;;
1603;SDS011;795;49.296;11.348;2022-10-16T03:22:26;2.53;;;2.43;;
1603;SDS011;795;49.296;11.348;2022-10-16T03:24:53;3.03;;;2.83;;
1603;SDS011;795;49.296;11.348;2022-10-16T03:27:20;2.93;;;2.73;;
1603;SDS011;795;49.296;11.348;2022-10-16T03:29:47;3.10;;;2.90;;
1603;SDS011;795;49.296;11.348;2022-10-16T03:32:14;3.00;;;2.80;;
1603;SDS011;795;49.296;11.348;2022-10-16T03:34:41;3.03;;;2.73;;
1603;SDS011;795;49.296;11.348;2022-10-16T03:37:08;2.57;;;2.47;;
1603;SDS011;795;49.296;11.348;2022-10-16T03:39:34;3.03;;;2.83;;
1603;SDS011;795;49.296;11.348;2022-10-16T03:42:01;3.50;;;2.50;;
1603;SDS011;795;49.296;11.348;2022-10-16T03:44:28;3.00;;;2.80;;
1603;SDS011;795;49.296;11.348;2022-10-16T03:46:55;2.93;;;2.73;;
1603;SDS011;795;49.296;11.348;2022-10-16T03:49:22;2.73;;;2.50;;
1603;SDS011;795;49.296;11.348;2022-10-16T03:51:49;3.40;;;2.83;;
1603;SDS011;795;49.296;11.348;2022-10-16T03:54:16;3.00;;;2.80;;
1603;SDS011;795;49.296;11.348;2022-10-16T03:56:43;3.37;;;2.93;;
1603;SDS011;795;49.296;11.348;2022-10-16T03:59:10;3.10;;;2.90;;
1603;SDS011;795;49.296;11.348;2022-10-16T04:01:37;3.60;;;3.20;;
1603;SDS011;795;49.296;11.348;2022-10-16T04:04:04;10.43;;;2.67;;
1603;SDS011;795;49.296;11.348;2022-10-16T04:06:31;3.97;;;3.17;;
1603;SDS011;795;49.296;11.348;2022-10-16T04:08:58;4.53;;;3.40;;
1603;SDS011;795;49.296;11.348;2022-10-16T04:11:25;5.87;;;3.47;;
1603;SDS011;795;49.296;11.348;2022-10-16T04:13:52;3.40;;;2.60;;
1603;SDS011;795;49.296;11.348;2022-10-16T04:16:19;3.37;;;3.17;;
1603;SDS011;795;49.296;11.348;2022-10-16T04:18:46;2.93;;;2.73;;
1603;SDS011;795;49.296;11.348;2022-10-16T04:21:13;5.47;;;3.17;;
1603;SDS011;795;49.296;11.348;2022-10-16T04:23:40;4.50;;;3.53;;
1603;SDS011;795;49.296;11.348;2022-10-16T04:26:08;3.90;;;3.60;;
1603;SDS011;795;49.296;11.348;2022-10-16T04:28:36;4.13;;;3.60;;
1603;SDS011;795;49.296;11.348;2022-10-16T04:31:04;3.57;;;3.27;;
1603;SDS011;795;49.296;11.348;2022-10-16T04:33:32;3.90;;;3.60;;
1603;SDS011;795;49.296;11.348;2022-10-16T04:36:00;5.33;;;3.77;;
1603;SDS011;795;49.296;11.348;2022-10-16T04:38:30;3.27;;;3.07;;
1603;SDS011;795;49.296;11.348;2022-10-16T04:40:57;6.63;;;3.97;;
1603;SDS011;795;49.296;11.348;2022-10-16T04:43:24;3.03;;;2.83;;
1603;SDS011;795;49.296;11.348;2022-10-16T04:45:52;4.60;;;3.83;;
1603;SDS011;795;49.296;11.348;2022-10-16T04:48:20;4.27;;;3.97;;
1603;SDS011;795;49.296;11.348;2022-10-16T04:50:47;4.53;;;4.07;;
1603;SDS011;795;49.296;11.348;2022-10-16T04:53:20;3.90;;;3.50;;
1603;SDS011;795;49.296;11.348;2022-10-16T04:55:47;3.63;;;3.33;;
1603;SDS011;795;49.296;11.348;2022-10-16T04:58:15;4.50;;;3.43;;
1603;SDS011;795;49.296;11.348;2022-10-16T05:00:43;3.43;;;3.23;;
1603;SDS011;795;49.296;11.348;2022-10-16T05:03:12;3.10;;;2.90;;
1603;SDS011;795;49.296;11.348;2022-10-16T05:05:43;3.13;;;2.93;;
1603;SDS011;795;49.296;11.348;2022-10-16T05:08:12;3.67;;;3.37;;
1603;SDS011;795;49.296;11.348;2022-10-16T05:10:42;3.20;;;2.87;;
1603;SDS011;795;49.296;11.348;2022-10-16T05:13:11;3.30;;;3.00;;
1603;SDS011;795;49.296;11.348;2022-10-16T05:15:38;3.87;;;3.60;;
1603;SDS011;795;49.296;11.348;2022-10-16T05:18:05;4.40;;;3.70;;
1603;SDS011;795;49.296;11.348;2022-10-16T05:20:32;5.73;;;3.50;;
1603;SDS011;795;49.296;11.348;2022-10-16T05:22:59;6.30;;;3.47;;
1603;SDS011;795;49.296;11.348;2022-10-16T05:25:26;3.20;;;3.00;;
1603;SDS011;795;49.296;11.348;2022-10-16T05:27:53;4.33;;;3.17;;
1603;SDS011;795;49.296;11.348;2022-10-16T05:30:20;2.83;;;2.63;;
1603;SDS011;795;49.296;11.348;2022-10-16T05:32:48;3.57;;;3.27;;
1603;SDS011;795;49.296;11.348;2022-10-16T05:35:17;3.27;;;2.97;;
1603;SDS011;795;49.296;11.348;2022-10-16T05:37:46;3.20;;;3.00;;
1603;SDS011;795;49.296;11.348;2022-10-16T05:40:14;4.30;;;3.50;;
1603;SDS011;795;49.296;11.348;2022-10-16T05:42:42;3.47;;;3.17;;
1603;SDS011;795;49.296;11.348;2022-10-16T05:45:10;3.47;;;3.17;;
1603;SDS011;795;49.296;11.348;2022-10-16T05:47:38;3.70;;;3.40;;
1603;SDS011;795;49.296;11.348;2022-10-16T05:50:06;3.80;;;3.37;;
1603;SDS011;795;49.296;11.348;2022-10-16T05:52:34;6.50;;;3.87;;
1603;SDS011;795;49.296;11.348;2022-10-16T05:55:01;4.77;;;4.37;;
1603;SDS011;795;49.296;11.348;2022-10-16T05:57:28;4.40;;;3.10;;
1603;SDS011;795;49.296;11.348;2022-10-16T05:59:55;3.50;;;3.20;;
1603;SDS011;795;49.296;11.348;2022-10-16T06:02:22;3.53;;;3.23;;
1603;SDS011;795;49.296;11.348;2022-10-16T06:04:51;7.17;;;3.70;;
1603;SDS011;795;49.296;11.348;2022-10-16T06:07:20;5.00;;;3.60;;
1603;SDS011;795;49.296;11.348;2022-10-16T06:09:49;3.60;;;3.30;;
1603;SDS011;795;49.296;11.348;2022-10-16T06:12:18;3.43;;;3.13;;
1603;SDS011;795;49.296;11.348;2022-10-16T06:14:46;4.40;;;3.80;;
1603;SDS011;795;49.296;11.348;2022-10-16T06:17:13;3.53;;;3.23;;
1603;SDS011;795;49.296;11.348;2022-10-16T06:19:41;4.73;;;4.07;;
1603;SDS011;795;49.296;11.348;2022-10-16T06:22:08;5.67;;;3.87;;
1603;SDS011;795;49.296;11.348;2022-10-16T06:24:35;3.87;;;3.47;;
1603;SDS011;795;49.296;11.348;2022-10-16T06:27:02;4.13;;;3.73;;
1603;SDS011;795;49.296;11.348;2022-10-16T06:29:31;3.90;;;3.53;;
1603;SDS011;795;49.296;11.348;2022-10-16T06:31:58;4.20;;;3.80;;
1603;SDS011;795;49.296;11.348;2022-10-16T06:34:25;5.07;;;4.30;;
1603;SDS011;795;49.296;11.348;2022-10-16T06:36:52;5.13;;;3.33;;
1603;SDS011;795;49.296;11.348;2022-10-16T06:39:18;3.73;;;3.40;;
1603;SDS011;795;49.296;11.348;2022-10-16T06:41:45;4.60;;;4.10;;
1603;SDS011;795;49.296;11.348;2022-10-16T06:44:12;8.77;;;4.17;;
1603;SDS011;795;49.296;11.348;2022-10-16T06:46:39;5.90;;;3.60;;
1603;SDS011;795;49.296;11.348;2022-10-16T06:49:06;4.47;;;4.07;;
1603;SDS011;795;49.296;11.348;2022-10-16T06:51:33;5.23;;;3.90;;
1603;SDS011;795;49.296;11.348;2022-10-16T06:54:07;3.80;;;3.33;;
1603;SDS011;795;49.296;11.348;2022-10-16T06:56:34;4.07;;;3.70;;
1603;SDS011;795;49.296;11.348;2022-10-16T06:59:02;8.13;;;3.60;;
1603;SDS011;795;49.296;11.348;2022-10-16T07:01:29;3.40;;;3.20;;
1603;SDS011;795;49.296;11.348;2022-10-16T07:03:57;3.20;;;2.93;;
1603;SDS011;795;49.296;11.348;2022-10-16T07:06:26;3.80;;;3.50;;
1603;SDS011;795;49.296;11.348;2022-10-16T07:08:56;3.93;;;3.63;;
1603;SDS011;795;49.296;11.348;2022-10-16T07:11:23;4.97;;;2.90;;
1603;SDS011;795;49.296;11.348;2022-10-16T07:13:50;3.50;;;3.20;;
1603;SDS011;795;49.296;11.348;2022-10-16T07:16:28;3.70;;;3.40;;
1603;SDS011;795;49.296;11.348;2022-10-16T07:18:59;4.67;;;2.90;;
1603;SDS011;795;49.296;11.348;2022-10-16T07:21:30;6.30;;;3.33;;
1603;SDS011;795;49.296;11.348;2022-10-16T07:24:02;3.83;;;3.53;;
1603;SDS011;795;49.296;11.348;2022-10-16T07:26:39;3.70;;;3.40;;
1603;SDS011;795;49.296;11.348;2022-10-16T07:29:13;3.70;;;3.23;;
1603;SDS011;795;49.296;11.348;2022-10-16T07:31:45;3.43;;;3.10;;
1603;SDS011;795;49.296;11.348;2022-10-16T07:34:15;3.40;;;3.10;;
1603;SDS011;795;49.296;11.348;2022-10-16T07:36:47;3.07;;;2.87;;
1603;SDS011;795;49.296;11.348;2022-10-16T07:39:15;3.33;;;3.07;;
1603;SDS011;795;49.296;11.348;2022-10-16T07:41:43;4.40;;;3.53;;
1603;SDS011;795;49.296;11.348;2022-10-16T07:44:10;3.13;;;2.93;;
1603;SDS011;795;49.296;11.348;2022-10-16T07:46:37;2.80;;;2.60;;
1603;SDS011;795;49.296;11.348;2022-10-16T07:49:04;3.33;;;3.03;;
1603;SDS011;795;49.296;11.348;2022-10-16T07:51:31;3.40;;;3.10;;
1603;SDS011;795;49.296;11.348;2022-10-16T07:53:59;3.43;;;3.00;;
1603;SDS011;795;49.296;11.348;2022-10-16T07:56:25;2.70;;;2.50;;
1603;SDS011;795;49.296;11.348;2022-10-16T07:58:52;2.93;;;2.73;;
1603;SDS011;795;49.296;11.348;2022-10-16T08:03:52;2.83;;;2.50;;
1603;SDS011;795;49.296;11.348;2022-10-16T08:06:20;4.87;;;3.70;;
1603;SDS011;795;49.296;11.348;2022-10-16T08:08:53;2.73;;;2.53;;
1603;SDS011;795;49.296;11.348;2022-10-16T08:11:21;2.90;;;2.60;;
1603;SDS011;795;49.296;11.348;2022-10-16T08:13:49;2.33;;;2.23;;
1603;SDS011;795;49.296;11.348;2022-10-16T08:16:16;2.70;;;2.50;;
1603;SDS011;795;49.296;11.348;2022-10-16T08:18:43;3.00;;;2.80;;
1603;SDS011;795;49.296;11.348;2022-10-16T08:21:15;6.60;;;2.80;;
1603;SDS011;795;49.296;11.348;2022-10-16T08:23:47;2.80;;;2.60;;
1603;SDS011;795;49.296;11.348;2022-10-16T08:26:22;3.10;;;2.80;;
1603;SDS011;795;49.296;11.348;2022-10-16T08:28:50;2.07;;;1.97;;
1603;SDS011;795;49.296;11.348;2022-10-16T08:31:18;3.13;;;2.50;;
1603;SDS011;795;49.296;11.348;2022-10-16T08:33:46;2.70;;;2.50;;
1603;SDS011;795;49.296;11.348;2022-10-16T08:36:14;2.77;;;2.57;;
1603;SDS011;795;49.296;11.348;2022-10-16T08:38:43;3.80;;;2.10;;
1603;SDS011;795;49.296;11.348;2022-10-16T08:48:14;2.63;;;2.43;;
1603;SDS011;795;49.296;11.348;2022-10-16T08:54:15;2.87;;;2.67;;
1603;SDS011;795;49.296;11.348;2022-10-16T08:56:56;4.40;;;2.13;;
1603;SDS011;795;49.296;11.348;2022-10-16T08:59:38;2.27;;;2.17;;
1603;SDS011;795;49.296;11.348;2022-10-16T09:13:35;4.10;;;2.10;;
1603;SDS011;795;49.296;11.348;2022-10-16T09:16:49;3.03;;;2.10;;
1603;SDS011;795;49.296;11.348;2022-10-16T09:19:31;2.30;;;1.80;;
1603;SDS011;795;49.296;11.348;2022-10-16T09:22:12;1.90;;;1.80;;
1603;SDS011;795;49.296;11.348;2022-10-16T09:24:43;2.00;;;1.80;;
1603;SDS011;795;49.296;11.348;2022-10-16T09:27:14;2.13;;;1.90;;
1603;SDS011;795;49.296;11.348;2022-10-16T09:29:42;3.60;;;2.20;;
1603;SDS011;795;49.296;11.348;2022-10-16T09:32:10;2.10;;;1.90;;
1603;SDS011;795;49.296;11.348;2022-10-16T09:34:50;1.93;;;1.83;;
1603;SDS011;795;49.296;11.348;2022-10-16T09:37:24;3.80;;;2.00;;
1603;SDS011;795;49.296;11.348;2022-10-16T09:39:53;2.43;;;2.20;;
1603;SDS011;795;49.296;11.348;2022-10-16T09:42:26;1.90;;;1.80;;
1603;SDS011;795;49.296;11.348;2022-10-16T09:45:00;2.50;;;2.30;;
1603;SDS011;795;49.296;11.348;2022-10-16T09:47:29;2.50;;;2.07;;
1603;SDS011;795;49.296;11.348;2022-10-16T09:50:13;1.83;;;1.73;;
1603;SDS011;795;49.296;11.348;2022-10-16T09:53:08;3.10;;;2.10;;
1603;SDS011;795;49.296;11.348;2022-10-16T09:55:50;2.53;;;2.00;;
1603;SDS011;795;49.296;11.348;2022-10-16T09:58:23;2.10;;;2.00;;
1603;SDS011;795;49.296;11.348;2022-10-16T10:00:52;2.50;;;1.50;;
1603;SDS011;795;49.296;11.348;2022-10-16T10:03:37;4.10;;;1.80;;
1603;SDS011;795;49.296;11.348;2022-10-16T10:06:16;3.50;;;1.60;;
1603;SDS011;795;49.296;11.348;2022-10-16T10:12:01;2.60;;;1.90;;
1603;SDS011;795;49.296;11.348;2022-10-16T10:14:32;2.60;;;2.40;;
1603;SDS011;795;49.296;11.348;2022-10-16T10:17:18;2.20;;;2.00;;
1603;SDS011;795;49.296;11.348;2022-10-16T10:19:53;3.07;;;1.90;;
1603;SDS011;795;49.296;11.348;2022-10-16T10:22:31;2.20;;;1.87;;
1603;SDS011;795;49.296;11.348;2022-10-16T10:30:45;2.83;;;2.20;;
1603;SDS011;795;49.296;11.348;2022-10-16T10:33:54;2.60;;;1.80;;
1603;SDS011;795;49.296;11.348;2022-10-16T10:37:06;2.23;;;1.83;;
1603;SDS011;795;49.296;11.348;2022-10-16T10:50:52;2.00;;;1.80;;
1603;SDS011;795;49.296;11.348;2022-10-16T10:56:47;2.07;;;1.80;;
1603;SDS011;795;49.296;11.348;2022-10-16T10:59:49;1.80;;;1.70;;
1603;SDS011;795;49.296;11.348;2022-10-16T11:02:52;2.93;;;1.57;;
1603;SDS011;795;49.296;11.348;2022-10-16T11:05:43;2.60;;;1.70;;
1603;SDS011;795;49.296;11.348;2022-10-16T11:08:18;2.27;;;2.10;;
1603;SDS011;795;49.296;11.348;2022-10-16T11:11:34;2.10;;;2.00;;
1603;SDS011;795;49.296;11.348;2022-10-16T11:14:25;6.50;;;1.80;;
1603;SDS011;795;49.296;11.348;2022-10-16T11:17:18;1.90;;;1.80;;
1603;SDS011;795;49.296;11.348;2022-10-16T11:22:44;2.03;;;1.90;;
1603;SDS011;795;49.296;11.348;2022-10-16T11:25:30;1.73;;;1.63;;
1603;SDS011;795;49.296;11.348;2022-10-16T11:28:02;3.93;;;1.80;;
1603;SDS011;795;49.296;11.348;2022-10-16T11:31:05;2.20;;;2.00;;
1603;SDS011;795;49.296;11.348;2022-10-16T11:34:04;2.90;;;1.90;;
1603;SDS011;795;49.296;11.348;2022-10-16T11:37:08;2.73;;;2.00;;
1603;SDS011;795;49.296;11.348;2022-10-16T11:39:45;3.73;;;1.47;;
1603;SDS011;795;49.296;11.348;2022-10-16T11:42:16;1.90;;;1.80;;
1603;SDS011;795;49.296;11.348;2022-10-16T11:45:49;2.13;;;1.93;;
1603;SDS011;795;49.296;11.348;2022-10-16T11:48:15;1.60;;;1.50;;
1603;SDS011;795;49.296;11.348;2022-10-16T11:51:05;2.10;;;1.73;;
1603;SDS011;795;49.296;11.348;2022-10-16T11:53:46;1.80;;;1.70;;
1603;SDS011;795;49.296;11.348;2022-10-16T11:56:26;7.80;;;1.93;;
1603;SDS011;795;49.296;11.348;2022-10-16T11:59:02;3.63;;;2.10;;
1603;SDS011;795;49.296;11.348;2022-10-16T12:01:54;1.70;;;1.60;;
1603;SDS011;795;49.296;11.348;2022-10-16T12:07:42;2.53;;;2.30;;
1603;SDS011;795;49.296;11.348;2022-10-16T12:10:37;6.73;;;1.63;;
1603;SDS011;795;49.296;11.348;2022-10-16T12:16:07;3.10;;;1.90;;
1603;SDS011;795;49.296;11.348;2022-10-16T12:18:49;2.03;;;1.70;;
1603;SDS011;795;49.296;11.348;2022-10-16T12:21:43;3.03;;;1.40;;
1603;SDS011;795;49.296;11.348;2022-10-16T12:24:20;1.40;;;1.20;;
1603;SDS011;795;49.296;11.348;2022-10-16T12:27:02;1.93;;;1.50;;
1603;SDS011;795;49.296;11.348;2022-10-16T12:29:49;2.87;;;1.87;;
1603;SDS011;795;49.296;11.348;2022-10-16T12:35:20;1.47;;;1.37;;
1603;SDS011;795;49.296;11.348;2022-10-16T12:38:07;7.27;;;1.50;;
1603;SDS011;795;49.296;11.348;2022-10-16T12:41:02;1.90;;;1.20;;
1603;SDS011;795;49.296;11.348;2022-10-16T12:48:39;1.93;;;1.30;;
1603;SDS011;795;49.296;11.348;2022-10-16T13:15:58;1.53;;;1.43;;
1603;SDS011;795;49.296;11.348;2022-10-16T13:22:22;1.90;;;1.80;;
1603;SDS011;795;49.296;11.348;2022-10-16T13:28:28;1.60;;;1.47;;
1603;SDS011;795;49.296;11.348;2022-10-16T13:31:00;1.63;;;1.53;;
1603;SDS011;795;49.296;11.348;2022-10-16T13:36:06;4.10;;;1.83;;
1603;SDS011;795;49.296;11.348;2022-10-16T13:39:15;1.60;;;1.50;;
1603;SDS011;795;49.296;11.348;2022-10-16T13:44:54;3.53;;;1.60;;
1603;SDS011;795;49.296;11.348;2022-10-16T13:47:26;5.50;;;1.60;;
1603;SDS011;795;49.296;11.348;2022-10-16T13:52:36;2.03;;;1.83;;
1603;SDS011;795;49.296;11.348;2022-10-16T13:55:13;3.27;;;1.80;;
1603;SDS011;795;49.296;11.348;2022-10-16T13:57:45;1.83;;;1.50;;
1603;SDS011;795;49.296;11.348;2022-10-16T14:00:19;1.93;;;1.40;;
1603;SDS011;795;49.296;11.348;2022-10-16T14:02:58;1.60;;;1.30;;
1603;SDS011;795;49.296;11.348;2022-10-16T14:06:05;1.70;;;1.60;;
1603;SDS011;795;49.296;11.348;2022-10-16T14:09:02;3.87;;;1.80;;
1603;SDS011;795;49.296;11.348;2022-10-16T14:11:54;4.60;;;1.73;;
1603;SDS011;795;49.296;11.348;2022-10-16T14:14:40;2.43;;;1.50;;
1603;SDS011;795;49.296;11.348;2022-10-16T14:17:18;4.83;;;3.20;;
1603;SDS011;795;49.296;11.348;2022-10-16T14:19:58;4.97;;;1.80;;
1603;SDS011;795;49.296;11.348;2022-10-16T14:22:36;1.50;;;1.40;;
1603;SDS011;795;49.296;11.348;2022-10-16T14:30:50;8.40;;;2.00;;
1603;SDS011;795;49.296;11.348;2022-10-16T14:36:01;1.70;;;1.60;;
1603;SDS011;795;49.296;11.348;2022-10-16T14:38:35;3.60;;;1.50;;
1603;SDS011;795;49.296;11.348;2022-10-16T14:41:05;1.50;;;1.40;;
1603;SDS011;795;49.296;11.348;2022-10-16T14:43:39;1.60;;;1.50;;
1603;SDS011;795;49.296;11.348;2022-10-16T14:46:18;1.90;;;1.80;;
1603;SDS011;795;49.296;11.348;2022-10-16T14:49:00;1.97;;;1.77;;
1603;SDS011;795;49.296;11.348;2022-10-16T14:51:44;1.80;;;1.70;;
1603;SDS011;795;49.296;11.348;2022-10-16T14:54:12;9.83;;;1.70;;
1603;SDS011;795;49.296;11.348;2022-10-16T14:56:45;1.30;;;1.20;;
1603;SDS011;795;49.296;11.348;2022-10-16T14:59:25;1.80;;;1.37;;
1603;SDS011;795;49.296;11.348;2022-10-16T15:05:19;4.53;;;1.70;;
1603;SDS011;795;49.296;11.348;2022-10-16T15:07:53;3.00;;;1.77;;
1603;SDS011;795;49.296;11.348;2022-10-16T15:10:22;2.30;;;1.60;;
1603;SDS011;795;49.296;11.348;2022-10-16T15:12:56;3.83;;;2.17;;
1603;SDS011;795;49.296;11.348;2022-10-16T15:17:50;3.03;;;1.80;;
1603;SDS011;795;49.296;11.348;2022-10-16T15:20:22;2.07;;;1.93;;
1603;SDS011;795;49.296;11.348;2022-10-16T15:22:51;1.80;;;1.60;;
1603;SDS011;795;49.296;11.348;2022-10-16T15:27:59;3.53;;;1.73;;
1603;SDS011;795;49.296;11.348;2022-10-16T15:30:29;2.30;;;2.17;;
1603;SDS011;795;49.296;11.348;2022-10-16T15:32:57;3.53;;;1.83;;
1603;SDS011;795;49.296;11.348;2022-10-16T15:35:24;3.20;;;2.07;;
1603;SDS011;795;49.296;11.348;2022-10-16T15:37:53;1.80;;;1.70;;
1603;SDS011;795;49.296;11.348;2022-10-16T15:40:20;2.40;;;1.90;;
1603;SDS011;795;49.296;11.348;2022-10-16T15:42:49;2.90;;;1.93;;
1603;SDS011;795;49.296;11.348;2022-10-16T15:45:16;2.30;;;2.10;;
1603;SDS011;795;49.296;11.348;2022-10-16T15:47:45;3.70;;;2.10;;
1603;SDS011;795;49.296;11.348;2022-10-16T15:50:13;2.60;;;1.90;;
1603;SDS011;795;49.296;11.348;2022-10-16T15:52:42;5.13;;;1.90;;
1603;SDS011;795;49.296;11.348;2022-10-16T15:55:11;2.00;;;1.90;;
1603;SDS011;795;49.296;11.348;2022-10-16T15:57:40;3.33;;;1.80;;
1603;SDS011;795;49.296;11.348;2022-10-16T16:00:10;4.93;;;2.20;;
1603;SDS011;795;49.296;11.348;2022-10-16T16:02:50;2.53;;;2.00;;
1603;SDS011;795;49.296;11.348;2022-10-16T16:05:20;8.60;;;1.77;;
1603;SDS011;795;49.296;11.348;2022-10-16T16:07:49;2.17;;;1.97;;
1603;SDS011;795;49.296;11.348;2022-10-16T16:10:17;4.57;;;1.90;;
1603;SDS011;795;49.296;11.348;2022-10-16T16:12:47;2.57;;;1.87;;
1603;SDS011;795;49.296;11.348;2022-10-16T16:15:19;1.73;;;1.63;;
1603;SDS011;795;49.296;11.348;2022-10-16T16:17:48;2.57;;;2.37;;
1603;SDS011;795;49.296;11.348;2022-10-16T16:20:15;3.90;;;2.57;;
1603;SDS011;795;49.296;11.348;2022-10-16T16:22:43;2.10;;;1.80;;
1603;SDS011;795;49.296;11.348;2022-10-16T16:25:10;4.57;;;2.60;;
1603;SDS011;795;49.296;11.348;2022-10-16T16:27:37;2.60;;;2.40;;
1603;SDS011;795;49.296;11.348;2022-10-16T16:30:07;2.83;;;2.60;;
1603;SDS011;795;49.296;11.348;2022-10-16T16:32:44;4.23;;;2.90;;
1603;SDS011;795;49.296;11.348;2022-10-16T16:35:12;4.40;;;2.77;;
1603;SDS011;795;49.296;11.348;2022-10-16T16:37:39;5.00;;;3.60;;
1603;SDS011;795;49.296;11.348;2022-10-16T16:40:06;4.17;;;3.40;;
1603;SDS011;795;49.296;11.348;2022-10-16T16:42:33;4.20;;;3.30;;
1603;SDS011;795;49.296;11.348;2022-10-16T16:45:00;3.07;;;2.70;;
1603;SDS011;795;49.296;11.348;2022-10-16T16:47:27;2.87;;;2.60;;
1603;SDS011;795;49.296;11.348;2022-10-16T16:49:55;2.83;;;2.60;;
1603;SDS011;795;49.296;11.348;2022-10-16T16:52:22;2.77;;;2.57;;
1603;SDS011;795;49.296;11.348;2022-10-16T16:54:49;3.73;;;3.13;;
1603;SDS011;795;49.296;11.348;2022-10-16T16:57:19;3.97;;;3.03;;
1603;SDS011;795;49.296;11.348;2022-10-16T16:59:46;3.10;;;2.80;;
1603;SDS011;795;49.296;11.348;2022-10-16T17:02:17;2.87;;;2.63;;
1603;SDS011;795;49.296;11.348;2022-10-16T17:04:44;3.30;;;2.77;;
1603;SDS011;795;49.296;11.348;2022-10-16T17:07:11;3.13;;;2.83;;
1603;SDS011;795;49.296;11.348;2022-10-16T17:09:38;3.17;;;2.90;;
1603;SDS011;795;49.296;11.348;2022-10-16T17:12:05;7.47;;;3.47;;
1603;SDS011;795;49.296;11.348;2022-10-16T17:14:32;3.67;;;2.87;;
1603;SDS011;795;49.296;11.348;2022-10-16T17:16:59;5.00;;;3.53;;
1603;SDS011;795;49.296;11.348;2022-10-16T17:19:26;4.77;;;3.30;;
1603;SDS011;795;49.296;11.348;2022-10-16T17:21:53;5.53;;;2.93;;
1603;SDS011;795;49.296;11.348;2022-10-16T17:24:20;3.80;;;3.40;;
1603;SDS011;795;49.296;11.348;2022-10-16T17:26:48;3.40;;;3.20;;
1603;SDS011;795;49.296;11.348;2022-10-16T17:29:15;4.27;;;3.97;;
1603;SDS011;795;49.296;11.348;2022-10-16T17:31:44;4.63;;;3.30;;
1603;SDS011;795;49.296;11.348;2022-10-16T17:34:14;8.73;;;3.83;;
1603;SDS011;795;49.296;11.348;2022-10-16T17:36:42;8.03;;;6.13;;
1603;SDS011;795;49.296;11.348;2022-10-16T17:39:10;9.23;;;7.03;;
1603;SDS011;795;49.296;11.348;2022-10-16T17:41:46;12.70;;;6.83;;
1603;SDS011;795;49.296;11.348;2022-10-16T17:44:14;8.53;;;6.07;;
1603;SDS011;795;49.296;11.348;2022-10-16T17:46:48;13.97;;;6.27;;
1603;SDS011;795;49.296;11.348;2022-10-16T17:49:19;7.70;;;6.73;;
1603;SDS011;795;49.296;11.348;2022-10-16T17:51:50;7.10;;;6.40;;
1603;SDS011;795;49.296;11.348;2022-10-16T17:54:19;7.83;;;6.90;;
1603;SDS011;795;49.296;11.348;2022-10-16T17:56:46;5.20;;;4.00;;
1603;SDS011;795;49.296;11.348;2022-10-16T17:59:13;3.10;;;2.90;;
1603;SDS011;795;49.296;11.348;2022-10-16T18:01:41;4.80;;;3.20;;
1603;SDS011;795;49.296;11.348;2022-10-16T18:04:12;3.77;;;2.60;;
1603;SDS011;795;49.296;11.348;2022-10-16T18:06:42;3.37;;;3.07;;